Aeroporto :
LOGIN :

Iscrizione | Disclaimer

   EN    FR    IT 

 










Sommario :    VFR   VFR Marginale   IFR   IFR Intensivo   IFR Molto Intensivo
Visibilità : 
Base nubi : 
>= 8 km
>= 3000ft
5 / 8 km
1000 / 3000 ft
1500m / 5 km
500 / 1000 ft
800 / 1500m
200 / 500 ft
< 800m
< 200 ft
Simboli :   Temporali  Nebbia  Neve Forte  Precipitazioni Forti  Vento > 20 kt
SIGMETs :   Varie  Temporali  Ghiacco  Turbolenza  Onda orograficha  Ceneri Vulcaniche






- Altitudine del aeroporto : 335 ft
- Codice IATA : BEG


LYBE - Belgrade Nikola Tesla

ULTIMO METAR :
  • 280130Z 28007KT CAVOK 11/11 Q1023 NOSIG

METARs OBSOLETI :
  • 280100Z 28007KT CAVOK 12/11 Q1023 NOSIG
  • 280030Z 28006KT CAVOK 12/11 Q1024 NOSIG
  • 280000Z 28007KT CAVOK 12/12 Q1024 NOSIG
  • 272330Z 28006KT CAVOK 12/12 Q1024 NOSIG
  • 272300Z 29007KT CAVOK 12/11 Q1024 NOSIG

TAF TAF LYBE
Valido dal 28 a 00 ore il 29 a 00 ore UTC


272300Z 2800/2824 26006KT 9999 SCT040 TX20/2813Z TN08/2803Z
BECMG 2806/2808 32012KT
TEMPO 2811/2817 34015G25KT 3000 TSRA SCT030 BKN040CB



MetMap, La meteo Aeronautica in un colpo d'occhio ! - Copyright ORBIFLY Dicembre 2007 - Disclaimer

ORBIFLY MET'MAP TEAM :

Programmazione e sviluppo : Alexandra Zaïnal
Concezione : Baudouin d'Aumeries
Aiuto per la programmazione : Marc-Olivier Méhu
Supporto tecnico e logistico : Manuel Goepfert
Aiuto per la traduzione : Arnaldo La Scala

Contatto : metmap@orbifly.com




FONTI E CREDITI :

   NOAA